Terminal Aerodrome Forecast
Issued by NWS

Home | Current Version | Previous Version | Text Only | Print | Product List | Glossary On
Versions: 1 2 3 4 5 6 7 8 9 10 11 12 13
000
FTUS46 KMTR 241700
TAFOAK
TAF
KOAK 241735Z 2418/2524 10006KT P6SM SKC
     FM242100 24010KT P6SM SCT250
     FM250500 16009KT P6SM FEW015 BKN150
     FM251200 16012G22KT P6SM -RA OVC040
     FM252100 21010KT P6SM -SHRA SCT040 BKN050=

USA.gov is the U.S. government's official web portal to all federal, state and local government web resources and services.